sensor_id;sensor_type;location;lat;lon;timestamp;P1;durP1;ratioP1;P2;durP2;ratioP2
24143;SDS011;12307;50.828;6.080;2022-09-27T00:01:52;1.15;;;0.50;;
24143;SDS011;12307;50.828;6.080;2022-09-27T00:04:18;1.00;;;0.50;;
24143;SDS011;12307;50.828;6.080;2022-09-27T00:06:43;1.35;;;0.80;;
24143;SDS011;12307;50.828;6.080;2022-09-27T00:09:09;1.15;;;0.50;;
24143;SDS011;12307;50.828;6.080;2022-09-27T00:11:36;1.42;;;0.45;;
24143;SDS011;12307;50.828;6.080;2022-09-27T00:14:03;1.25;;;0.52;;
24143;SDS011;12307;50.828;6.080;2022-09-27T00:16:32;1.48;;;0.70;;
24143;SDS011;12307;50.828;6.080;2022-09-27T00:18:59;1.17;;;0.70;;
24143;SDS011;12307;50.828;6.080;2022-09-27T00:21:27;0.77;;;0.55;;
24143;SDS011;12307;50.828;6.080;2022-09-27T00:23:54;1.27;;;0.60;;
24143;SDS011;12307;50.828;6.080;2022-09-27T00:26:21;1.08;;;0.70;;
24143;SDS011;12307;50.828;6.080;2022-09-27T00:28:46;0.75;;;0.60;;
24143;SDS011;12307;50.828;6.080;2022-09-27T00:31:13;1.52;;;0.60;;
24143;SDS011;12307;50.828;6.080;2022-09-27T00:33:46;3.53;;;0.65;;
24143;SDS011;12307;50.828;6.080;2022-09-27T00:36:12;0.75;;;0.50;;
24143;SDS011;12307;50.828;6.080;2022-09-27T00:38:39;1.58;;;0.70;;
24143;SDS011;12307;50.828;6.080;2022-09-27T00:41:04;0.85;;;0.60;;
24143;SDS011;12307;50.828;6.080;2022-09-27T00:43:41;1.73;;;0.55;;
24143;SDS011;12307;50.828;6.080;2022-09-27T00:46:09;1.05;;;0.57;;
24143;SDS011;12307;50.828;6.080;2022-09-27T00:48:36;0.73;;;0.45;;
24143;SDS011;12307;50.828;6.080;2022-09-27T00:51:03;1.05;;;0.70;;
24143;SDS011;12307;50.828;6.080;2022-09-27T00:53:32;0.70;;;0.50;;
24143;SDS011;12307;50.828;6.080;2022-09-27T00:56:02;0.63;;;0.60;;
24143;SDS011;12307;50.828;6.080;2022-09-27T00:58:34;1.08;;;0.60;;
24143;SDS011;12307;50.828;6.080;2022-09-27T01:01:04;1.27;;;0.52;;
24143;SDS011;12307;50.828;6.080;2022-09-27T01:03:33;0.93;;;0.52;;
24143;SDS011;12307;50.828;6.080;2022-09-27T01:06:04;0.73;;;0.60;;
24143;SDS011;12307;50.828;6.080;2022-09-27T01:08:32;1.17;;;0.60;;
24143;SDS011;12307;50.828;6.080;2022-09-27T01:11:01;0.98;;;0.60;;
24143;SDS011;12307;50.828;6.080;2022-09-27T01:13:39;1.50;;;0.50;;
24143;SDS011;12307;50.828;6.080;2022-09-27T01:16:14;0.98;;;0.60;;
24143;SDS011;12307;50.828;6.080;2022-09-27T01:18:47;0.73;;;0.52;;
24143;SDS011;12307;50.828;6.080;2022-09-27T01:21:48;0.50;;;0.50;;
24143;SDS011;12307;50.828;6.080;2022-09-27T01:24:24;1.38;;;0.70;;
24143;SDS011;12307;50.828;6.080;2022-09-27T01:30:20;1.23;;;0.70;;
24143;SDS011;12307;50.828;6.080;2022-09-27T01:32:49;1.20;;;0.60;;
24143;SDS011;12307;50.828;6.080;2022-09-27T01:35:20;0.80;;;0.38;;
24143;SDS011;12307;50.828;6.080;2022-09-27T01:37:56;0.68;;;0.43;;
24143;SDS011;12307;50.828;6.080;2022-09-27T01:40:29;0.65;;;0.45;;
24143;SDS011;12307;50.828;6.080;2022-09-27T01:43:03;0.85;;;0.43;;
24143;SDS011;12307;50.828;6.080;2022-09-27T01:45:39;0.93;;;0.50;;
24143;SDS011;12307;50.828;6.080;2022-09-27T01:48:12;0.93;;;0.57;;
24143;SDS011;12307;50.828;6.080;2022-09-27T01:50:43;1.42;;;0.73;;
24143;SDS011;12307;50.828;6.080;2022-09-27T01:53:14;0.82;;;0.65;;
24143;SDS011;12307;50.828;6.080;2022-09-27T01:55:44;0.65;;;0.40;;
24143;SDS011;12307;50.828;6.080;2022-09-27T01:58:13;0.50;;;0.40;;
24143;SDS011;12307;50.828;6.080;2022-09-27T02:00:43;1.08;;;0.52;;
24143;SDS011;12307;50.828;6.080;2022-09-27T02:03:13;0.75;;;0.47;;
24143;SDS011;12307;50.828;6.080;2022-09-27T02:05:44;1.42;;;0.50;;
24143;SDS011;12307;50.828;6.080;2022-09-27T02:08:15;1.27;;;0.60;;
24143;SDS011;12307;50.828;6.080;2022-09-27T02:10:44;0.80;;;0.50;;
24143;SDS011;12307;50.828;6.080;2022-09-27T02:13:12;1.02;;;0.50;;
24143;SDS011;12307;50.828;6.080;2022-09-27T02:15:46;1.70;;;0.70;;
24143;SDS011;12307;50.828;6.080;2022-09-27T02:18:17;0.77;;;0.50;;
24143;SDS011;12307;50.828;6.080;2022-09-27T02:20:53;0.60;;;0.32;;
24143;SDS011;12307;50.828;6.080;2022-09-27T02:23:23;0.82;;;0.60;;
24143;SDS011;12307;50.828;6.080;2022-09-27T02:25:56;0.90;;;0.68;;
24143;SDS011;12307;50.828;6.080;2022-09-27T02:28:25;0.45;;;0.32;;
24143;SDS011;12307;50.828;6.080;2022-09-27T02:30:55;1.15;;;0.50;;
24143;SDS011;12307;50.828;6.080;2022-09-27T02:33:22;0.50;;;0.40;;
24143;SDS011;12307;50.828;6.080;2022-09-27T02:35:50;1.45;;;0.55;;
24143;SDS011;12307;50.828;6.080;2022-09-27T02:38:16;0.80;;;0.40;;
24143;SDS011;12307;50.828;6.080;2022-09-27T02:40:44;1.00;;;0.47;;
24143;SDS011;12307;50.828;6.080;2022-09-27T02:43:11;0.95;;;0.50;;
24143;SDS011;12307;50.828;6.080;2022-09-27T02:45:40;0.63;;;0.30;;
24143;SDS011;12307;50.828;6.080;2022-09-27T02:48:18;0.70;;;0.35;;
24143;SDS011;12307;50.828;6.080;2022-09-27T02:50:55;0.70;;;0.40;;
24143;SDS011;12307;50.828;6.080;2022-09-27T02:53:31;0.50;;;0.30;;
24143;SDS011;12307;50.828;6.080;2022-09-27T02:56:06;0.35;;;0.35;;
24143;SDS011;12307;50.828;6.080;2022-09-27T02:58:41;0.80;;;0.40;;
24143;SDS011;12307;50.828;6.080;2022-09-27T03:01:16;0.93;;;0.30;;
24143;SDS011;12307;50.828;6.080;2022-09-27T03:03:50;0.50;;;0.32;;
24143;SDS011;12307;50.828;6.080;2022-09-27T03:06:19;0.70;;;0.45;;
24143;SDS011;12307;50.828;6.080;2022-09-27T03:08:47;0.50;;;0.30;;
24143;SDS011;12307;50.828;6.080;2022-09-27T03:11:14;0.47;;;0.47;;
24143;SDS011;12307;50.828;6.080;2022-09-27T03:13:39;1.00;;;0.50;;
24143;SDS011;12307;50.828;6.080;2022-09-27T03:16:06;0.60;;;0.40;;
24143;SDS011;12307;50.828;6.080;2022-09-27T03:18:32;0.65;;;0.30;;
24143;SDS011;12307;50.828;6.080;2022-09-27T03:20:59;0.60;;;0.40;;
24143;SDS011;12307;50.828;6.080;2022-09-27T03:23:25;1.20;;;0.45;;
24143;SDS011;12307;50.828;6.080;2022-09-27T03:25:51;0.98;;;0.38;;
24143;SDS011;12307;50.828;6.080;2022-09-27T03:28:17;0.43;;;0.30;;
24143;SDS011;12307;50.828;6.080;2022-09-27T03:30:43;0.98;;;0.40;;
24143;SDS011;12307;50.828;6.080;2022-09-27T03:33:10;0.52;;;0.30;;
24143;SDS011;12307;50.828;6.080;2022-09-27T03:35:36;2.25;;;0.40;;
24143;SDS011;12307;50.828;6.080;2022-09-27T03:38:04;0.77;;;0.30;;
24143;SDS011;12307;50.828;6.080;2022-09-27T03:40:31;0.98;;;0.40;;
24143;SDS011;12307;50.828;6.080;2022-09-27T03:42:57;0.63;;;0.30;;
24143;SDS011;12307;50.828;6.080;2022-09-27T03:45:23;0.75;;;0.47;;
24143;SDS011;12307;50.828;6.080;2022-09-27T03:47:48;0.50;;;0.35;;
24143;SDS011;12307;50.828;6.080;2022-09-27T03:50:14;0.30;;;0.30;;
24143;SDS011;12307;50.828;6.080;2022-09-27T03:52:41;0.60;;;0.40;;
24143;SDS011;12307;50.828;6.080;2022-09-27T03:55:09;0.80;;;0.47;;
24143;SDS011;12307;50.828;6.080;2022-09-27T03:57:35;0.95;;;0.50;;
24143;SDS011;12307;50.828;6.080;2022-09-27T04:00:03;0.82;;;0.40;;
24143;SDS011;12307;50.828;6.080;2022-09-27T04:02:30;1.05;;;0.50;;
24143;SDS011;12307;50.828;6.080;2022-09-27T04:04:56;0.63;;;0.40;;
24143;SDS011;12307;50.828;6.080;2022-09-27T04:07:22;0.55;;;0.38;;
24143;SDS011;12307;50.828;6.080;2022-09-27T04:09:48;0.70;;;0.40;;
24143;SDS011;12307;50.828;6.080;2022-09-27T04:12:15;0.52;;;0.40;;
24143;SDS011;12307;50.828;6.080;2022-09-27T04:14:41;0.70;;;0.40;;
24143;SDS011;12307;50.828;6.080;2022-09-27T04:17:06;1.02;;;0.40;;
24143;SDS011;12307;50.828;6.080;2022-09-27T04:19:32;0.57;;;0.30;;
24143;SDS011;12307;50.828;6.080;2022-09-27T04:21:58;0.75;;;0.43;;
24143;SDS011;12307;50.828;6.080;2022-09-27T04:24:24;0.70;;;0.40;;
24143;SDS011;12307;50.828;6.080;2022-09-27T04:26:49;0.90;;;0.47;;
24143;SDS011;12307;50.828;6.080;2022-09-27T04:29:17;0.50;;;0.22;;
24143;SDS011;12307;50.828;6.080;2022-09-27T04:31:43;1.30;;;0.50;;
24143;SDS011;12307;50.828;6.080;2022-09-27T04:34:08;1.52;;;0.60;;
24143;SDS011;12307;50.828;6.080;2022-09-27T04:36:35;0.45;;;0.32;;
24143;SDS011;12307;50.828;6.080;2022-09-27T04:39:02;0.93;;;0.47;;
24143;SDS011;12307;50.828;6.080;2022-09-27T04:41:29;0.68;;;0.40;;
24143;SDS011;12307;50.828;6.080;2022-09-27T04:43:55;0.98;;;0.50;;
24143;SDS011;12307;50.828;6.080;2022-09-27T04:46:25;0.63;;;0.38;;
24143;SDS011;12307;50.828;6.080;2022-09-27T04:48:55;0.70;;;0.40;;
24143;SDS011;12307;50.828;6.080;2022-09-27T04:51:21;0.80;;;0.47;;
24143;SDS011;12307;50.828;6.080;2022-09-27T04:53:47;0.70;;;0.40;;
24143;SDS011;12307;50.828;6.080;2022-09-27T04:56:12;0.55;;;0.30;;
24143;SDS011;12307;50.828;6.080;2022-09-27T04:58:38;0.60;;;0.25;;
24143;SDS011;12307;50.828;6.080;2022-09-27T05:01:04;1.10;;;0.50;;
24143;SDS011;12307;50.828;6.080;2022-09-27T05:03:32;1.85;;;0.50;;
24143;SDS011;12307;50.828;6.080;2022-09-27T05:05:58;0.80;;;0.32;;
24143;SDS011;12307;50.828;6.080;2022-09-27T05:08:24;0.50;;;0.30;;
24143;SDS011;12307;50.828;6.080;2022-09-27T05:10:50;1.33;;;0.32;;
24143;SDS011;12307;50.828;6.080;2022-09-27T05:13:16;1.13;;;0.43;;
24143;SDS011;12307;50.828;6.080;2022-09-27T05:15:42;0.52;;;0.32;;
24143;SDS011;12307;50.828;6.080;2022-09-27T05:18:08;0.45;;;0.32;;
24143;SDS011;12307;50.828;6.080;2022-09-27T05:20:35;0.47;;;0.30;;
24143;SDS011;12307;50.828;6.080;2022-09-27T05:23:01;0.55;;;0.40;;
24143;SDS011;12307;50.828;6.080;2022-09-27T05:25:28;0.47;;;0.30;;
24143;SDS011;12307;50.828;6.080;2022-09-27T05:27:55;0.38;;;0.30;;
24143;SDS011;12307;50.828;6.080;2022-09-27T05:30:22;0.43;;;0.30;;
24143;SDS011;12307;50.828;6.080;2022-09-27T05:32:48;0.95;;;0.30;;
24143;SDS011;12307;50.828;6.080;2022-09-27T05:35:15;1.25;;;0.57;;
24143;SDS011;12307;50.828;6.080;2022-09-27T05:37:43;0.50;;;0.30;;
24143;SDS011;12307;50.828;6.080;2022-09-27T05:40:15;1.83;;;0.52;;
24143;SDS011;12307;50.828;6.080;2022-09-27T05:42:41;0.80;;;0.40;;
24143;SDS011;12307;50.828;6.080;2022-09-27T05:45:07;0.32;;;0.30;;
24143;SDS011;12307;50.828;6.080;2022-09-27T05:47:34;0.60;;;0.30;;
24143;SDS011;12307;50.828;6.080;2022-09-27T05:49:59;0.30;;;0.28;;
24143;SDS011;12307;50.828;6.080;2022-09-27T05:52:25;0.85;;;0.35;;
24143;SDS011;12307;50.828;6.080;2022-09-27T05:54:53;0.75;;;0.40;;
24143;SDS011;12307;50.828;6.080;2022-09-27T05:57:18;0.77;;;0.32;;
24143;SDS011;12307;50.828;6.080;2022-09-27T05:59:44;0.88;;;0.38;;
24143;SDS011;12307;50.828;6.080;2022-09-27T06:02:12;0.20;;;0.20;;
24143;SDS011;12307;50.828;6.080;2022-09-27T06:04:37;0.60;;;0.30;;
24143;SDS011;12307;50.828;6.080;2022-09-27T06:07:03;0.98;;;0.40;;
24143;SDS011;12307;50.828;6.080;2022-09-27T06:09:29;0.60;;;0.20;;
24143;SDS011;12307;50.828;6.080;2022-09-27T06:11:56;0.82;;;0.40;;
24143;SDS011;12307;50.828;6.080;2022-09-27T06:14:22;0.50;;;0.20;;
24143;SDS011;12307;50.828;6.080;2022-09-27T06:16:47;0.30;;;0.20;;
24143;SDS011;12307;50.828;6.080;2022-09-27T06:19:13;0.32;;;0.20;;
24143;SDS011;12307;50.828;6.080;2022-09-27T06:21:39;0.40;;;0.20;;
24143;SDS011;12307;50.828;6.080;2022-09-27T06:24:05;0.73;;;0.28;;
24143;SDS011;12307;50.828;6.080;2022-09-27T06:26:31;0.88;;;0.50;;
24143;SDS011;12307;50.828;6.080;2022-09-27T06:28:59;0.98;;;0.45;;
24143;SDS011;12307;50.828;6.080;2022-09-27T06:31:24;0.60;;;0.40;;
24143;SDS011;12307;50.828;6.080;2022-09-27T06:33:50;1.58;;;0.60;;
24143;SDS011;12307;50.828;6.080;2022-09-27T06:36:16;0.50;;;0.30;;
24143;SDS011;12307;50.828;6.080;2022-09-27T06:38:42;0.50;;;0.20;;
24143;SDS011;12307;50.828;6.080;2022-09-27T06:41:10;0.60;;;0.30;;
24143;SDS011;12307;50.828;6.080;2022-09-27T06:43:37;0.85;;;0.38;;
24143;SDS011;12307;50.828;6.080;2022-09-27T06:46:04;0.80;;;0.40;;
24143;SDS011;12307;50.828;6.080;2022-09-27T06:48:30;0.75;;;0.40;;
24143;SDS011;12307;50.828;6.080;2022-09-27T06:50:56;0.40;;;0.28;;
24143;SDS011;12307;50.828;6.080;2022-09-27T06:53:23;0.63;;;0.40;;
24143;SDS011;12307;50.828;6.080;2022-09-27T06:55:50;0.50;;;0.30;;
24143;SDS011;12307;50.828;6.080;2022-09-27T06:58:16;0.30;;;0.20;;
24143;SDS011;12307;50.828;6.080;2022-09-27T07:01:01;0.70;;;0.50;;
24143;SDS011;12307;50.828;6.080;2022-09-27T07:03:29;0.50;;;0.30;;
24143;SDS011;12307;50.828;6.080;2022-09-27T07:06:00;0.70;;;0.50;;
24143;SDS011;12307;50.828;6.080;2022-09-27T07:08:27;0.88;;;0.47;;
24143;SDS011;12307;50.828;6.080;2022-09-27T07:10:54;1.15;;;0.30;;
24143;SDS011;12307;50.828;6.080;2022-09-27T07:13:20;0.55;;;0.40;;
24143;SDS011;12307;50.828;6.080;2022-09-27T07:15:47;1.27;;;0.40;;
24143;SDS011;12307;50.828;6.080;2022-09-27T07:18:14;0.68;;;0.30;;
24143;SDS011;12307;50.828;6.080;2022-09-27T07:20:40;1.08;;;0.30;;
24143;SDS011;12307;50.828;6.080;2022-09-27T07:23:06;0.80;;;0.45;;
24143;SDS011;12307;50.828;6.080;2022-09-27T07:25:33;0.70;;;0.20;;
24143;SDS011;12307;50.828;6.080;2022-09-27T07:27:59;0.22;;;0.20;;
24143;SDS011;12307;50.828;6.080;2022-09-27T07:30:25;0.93;;;0.40;;
24143;SDS011;12307;50.828;6.080;2022-09-27T07:32:55;2.08;;;0.50;;
24143;SDS011;12307;50.828;6.080;2022-09-27T07:35:24;0.82;;;0.40;;
24143;SDS011;12307;50.828;6.080;2022-09-27T07:37:49;0.70;;;0.40;;
24143;SDS011;12307;50.828;6.080;2022-09-27T07:40:16;0.93;;;0.50;;
24143;SDS011;12307;50.828;6.080;2022-09-27T07:42:43;0.82;;;0.50;;
24143;SDS011;12307;50.828;6.080;2022-09-27T07:45:09;1.55;;;0.47;;
24143;SDS011;12307;50.828;6.080;2022-09-27T07:47:36;0.55;;;0.35;;
24143;SDS011;12307;50.828;6.080;2022-09-27T07:50:02;1.30;;;0.60;;
24143;SDS011;12307;50.828;6.080;2022-09-27T07:52:37;1.90;;;0.60;;
24143;SDS011;12307;50.828;6.080;2022-09-27T07:55:04;1.95;;;0.60;;
24143;SDS011;12307;50.828;6.080;2022-09-27T07:57:31;1.15;;;0.50;;
24143;SDS011;12307;50.828;6.080;2022-09-27T07:59:56;1.15;;;0.40;;
24143;SDS011;12307;50.828;6.080;2022-09-27T08:02:22;1.55;;;0.50;;
24143;SDS011;12307;50.828;6.080;2022-09-27T08:04:48;1.42;;;0.50;;
24143;SDS011;12307;50.828;6.080;2022-09-27T08:07:14;1.42;;;0.50;;
24143;SDS011;12307;50.828;6.080;2022-09-27T08:09:41;0.63;;;0.40;;
24143;SDS011;12307;50.828;6.080;2022-09-27T08:12:07;3.20;;;0.50;;
24143;SDS011;12307;50.828;6.080;2022-09-27T08:14:34;1.30;;;0.50;;
24143;SDS011;12307;50.828;6.080;2022-09-27T08:17:00;1.52;;;0.50;;
24143;SDS011;12307;50.828;6.080;2022-09-27T08:19:26;1.13;;;0.40;;
24143;SDS011;12307;50.828;6.080;2022-09-27T08:21:52;1.58;;;0.43;;
24143;SDS011;12307;50.828;6.080;2022-09-27T08:24:19;1.50;;;0.50;;
24143;SDS011;12307;50.828;6.080;2022-09-27T08:26:46;1.17;;;0.70;;
24143;SDS011;12307;50.828;6.080;2022-09-27T08:29:12;1.35;;;0.50;;
24143;SDS011;12307;50.828;6.080;2022-09-27T08:31:38;0.98;;;0.50;;
24143;SDS011;12307;50.828;6.080;2022-09-27T08:34:03;2.95;;;0.60;;
24143;SDS011;12307;50.828;6.080;2022-09-27T08:36:29;1.20;;;0.45;;
24143;SDS011;12307;50.828;6.080;2022-09-27T08:38:55;0.80;;;0.50;;
24143;SDS011;12307;50.828;6.080;2022-09-27T08:41:25;0.90;;;0.32;;
24143;SDS011;12307;50.828;6.080;2022-09-27T08:44:05;1.77;;;0.50;;
24143;SDS011;12307;50.828;6.080;2022-09-27T08:46:36;0.73;;;0.40;;
24143;SDS011;12307;50.828;6.080;2022-09-27T08:49:09;1.20;;;0.50;;
24143;SDS011;12307;50.828;6.080;2022-09-27T08:51:41;0.75;;;0.38;;
24143;SDS011;12307;50.828;6.080;2022-09-27T08:54:10;1.58;;;0.60;;
24143;SDS011;12307;50.828;6.080;2022-09-27T08:56:43;1.23;;;0.50;;
24143;SDS011;12307;50.828;6.080;2022-09-27T08:59:11;1.40;;;0.50;;
24143;SDS011;12307;50.828;6.080;2022-09-27T09:01:39;1.27;;;0.45;;
24143;SDS011;12307;50.828;6.080;2022-09-27T09:04:05;1.60;;;0.40;;
24143;SDS011;12307;50.828;6.080;2022-09-27T09:06:34;1.83;;;0.40;;
24143;SDS011;12307;50.828;6.080;2022-09-27T09:09:10;1.00;;;0.52;;
24143;SDS011;12307;50.828;6.080;2022-09-27T09:11:46;0.70;;;0.50;;
24143;SDS011;12307;50.828;6.080;2022-09-27T09:14:43;0.70;;;0.50;;
24143;SDS011;12307;50.828;6.080;2022-09-27T09:17:27;0.93;;;0.47;;
24143;SDS011;12307;50.828;6.080;2022-09-27T09:20:15;1.73;;;0.47;;
24143;SDS011;12307;50.828;6.080;2022-09-27T09:22:49;2.75;;;0.60;;
24143;SDS011;12307;50.828;6.080;2022-09-27T09:25:28;1.48;;;0.43;;
24143;SDS011;12307;50.828;6.080;2022-09-27T09:28:03;0.60;;;0.40;;
24143;SDS011;12307;50.828;6.080;2022-09-27T09:30:45;2.40;;;0.30;;
24143;SDS011;12307;50.828;6.080;2022-09-27T09:33:21;0.82;;;0.52;;
24143;SDS011;12307;50.828;6.080;2022-09-27T09:35:51;1.25;;;0.60;;
24143;SDS011;12307;50.828;6.080;2022-09-27T09:38:25;1.25;;;0.50;;
24143;SDS011;12307;50.828;6.080;2022-09-27T09:40:57;1.10;;;0.50;;
24143;SDS011;12307;50.828;6.080;2022-09-27T09:43:28;2.72;;;0.60;;
24143;SDS011;12307;50.828;6.080;2022-09-27T09:45:59;1.05;;;0.50;;
24143;SDS011;12307;50.828;6.080;2022-09-27T09:48:35;1.48;;;0.55;;
24143;SDS011;12307;50.828;6.080;2022-09-27T09:51:09;0.43;;;0.40;;
24143;SDS011;12307;50.828;6.080;2022-09-27T09:53:40;1.73;;;0.65;;
24143;SDS011;12307;50.828;6.080;2022-09-27T09:56:12;1.70;;;0.90;;
24143;SDS011;12307;50.828;6.080;2022-09-27T09:58:43;1.58;;;0.70;;
24143;SDS011;12307;50.828;6.080;2022-09-27T10:01:16;0.93;;;0.43;;
24143;SDS011;12307;50.828;6.080;2022-09-27T10:03:44;1.05;;;0.57;;
24143;SDS011;12307;50.828;6.080;2022-09-27T10:06:10;2.75;;;0.52;;
24143;SDS011;12307;50.828;6.080;2022-09-27T10:08:37;2.25;;;0.88;;
24143;SDS011;12307;50.828;6.080;2022-09-27T10:11:03;0.55;;;0.50;;
24143;SDS011;12307;50.828;6.080;2022-09-27T10:13:30;1.10;;;0.50;;
24143;SDS011;12307;50.828;6.080;2022-09-27T10:16:00;1.30;;;0.60;;
24143;SDS011;12307;50.828;6.080;2022-09-27T10:18:30;1.77;;;0.60;;
24143;SDS011;12307;50.828;6.080;2022-09-27T10:20:58;2.50;;;0.80;;
24143;SDS011;12307;50.828;6.080;2022-09-27T10:23:28;1.05;;;0.52;;
24143;SDS011;12307;50.828;6.080;2022-09-27T10:25:55;1.13;;;0.60;;
24143;SDS011;12307;50.828;6.080;2022-09-27T10:28:29;1.55;;;0.80;;
24143;SDS011;12307;50.828;6.080;2022-09-27T10:30:58;1.02;;;0.50;;
24143;SDS011;12307;50.828;6.080;2022-09-27T10:33:26;2.17;;;0.68;;
24143;SDS011;12307;50.828;6.080;2022-09-27T10:35:56;1.88;;;0.60;;
24143;SDS011;12307;50.828;6.080;2022-09-27T10:38:23;1.77;;;0.70;;
24143;SDS011;12307;50.828;6.080;2022-09-27T10:40:51;1.73;;;0.75;;
24143;SDS011;12307;50.828;6.080;2022-09-27T10:43:29;1.73;;;0.80;;
24143;SDS011;12307;50.828;6.080;2022-09-27T10:45:58;1.98;;;0.70;;
24143;SDS011;12307;50.828;6.080;2022-09-27T10:48:29;1.73;;;0.70;;
24143;SDS011;12307;50.828;6.080;2022-09-27T10:50:57;2.60;;;0.63;;
24143;SDS011;12307;50.828;6.080;2022-09-27T10:53:25;1.50;;;0.70;;
24143;SDS011;12307;50.828;6.080;2022-09-27T10:55:51;1.80;;;0.50;;
24143;SDS011;12307;50.828;6.080;2022-09-27T10:58:18;3.15;;;0.90;;
24143;SDS011;12307;50.828;6.080;2022-09-27T11:00:53;2.47;;;0.93;;
24143;SDS011;12307;50.828;6.080;2022-09-27T11:03:20;2.70;;;0.90;;
24143;SDS011;12307;50.828;6.080;2022-09-27T11:05:46;1.40;;;0.70;;
24143;SDS011;12307;50.828;6.080;2022-09-27T11:08:20;3.20;;;0.93;;
24143;SDS011;12307;50.828;6.080;2022-09-27T11:11:03;1.73;;;0.80;;
24143;SDS011;12307;50.828;6.080;2022-09-27T11:13:43;2.15;;;0.70;;
24143;SDS011;12307;50.828;6.080;2022-09-27T11:16:25;3.00;;;0.90;;
24143;SDS011;12307;50.828;6.080;2022-09-27T11:19:06;2.45;;;0.68;;
24143;SDS011;12307;50.828;6.080;2022-09-27T11:21:43;1.55;;;0.75;;
24143;SDS011;12307;50.828;6.080;2022-09-27T11:24:38;1.05;;;0.70;;
24143;SDS011;12307;50.828;6.080;2022-09-27T11:27:15;1.70;;;0.68;;
24143;SDS011;12307;50.828;6.080;2022-09-27T11:29:55;1.30;;;0.70;;
24143;SDS011;12307;50.828;6.080;2022-09-27T11:32:29;0.65;;;0.50;;
24143;SDS011;12307;50.828;6.080;2022-09-27T11:35:12;1.60;;;0.73;;
24143;SDS011;12307;50.828;6.080;2022-09-27T11:38:05;1.67;;;0.80;;
24143;SDS011;12307;50.828;6.080;2022-09-27T11:40:47;4.07;;;0.90;;
24143;SDS011;12307;50.828;6.080;2022-09-27T11:46:19;2.35;;;0.80;;
24143;SDS011;12307;50.828;6.080;2022-09-27T11:48:54;3.28;;;0.80;;
24143;SDS011;12307;50.828;6.080;2022-09-27T11:51:46;2.05;;;0.50;;
24143;SDS011;12307;50.828;6.080;2022-09-27T11:57:22;1.17;;;0.80;;
24143;SDS011;12307;50.828;6.080;2022-09-27T12:00:00;1.25;;;0.70;;
24143;SDS011;12307;50.828;6.080;2022-09-27T12:02:58;1.85;;;0.60;;
24143;SDS011;12307;50.828;6.080;2022-09-27T12:05:51;1.52;;;0.63;;
24143;SDS011;12307;50.828;6.080;2022-09-27T12:11:14;1.30;;;0.60;;
24143;SDS011;12307;50.828;6.080;2022-09-27T12:13:46;1.23;;;0.75;;
24143;SDS011;12307;50.828;6.080;2022-09-27T12:16:16;2.55;;;0.80;;
24143;SDS011;12307;50.828;6.080;2022-09-27T12:18:44;1.90;;;0.80;;
24143;SDS011;12307;50.828;6.080;2022-09-27T12:21:12;1.77;;;0.60;;
24143;SDS011;12307;50.828;6.080;2022-09-27T12:23:40;0.95;;;0.50;;
24143;SDS011;12307;50.828;6.080;2022-09-27T12:26:09;0.90;;;0.60;;
24143;SDS011;12307;50.828;6.080;2022-09-27T12:28:41;1.77;;;0.82;;
24143;SDS011;12307;50.828;6.080;2022-09-27T12:31:16;1.15;;;0.60;;
24143;SDS011;12307;50.828;6.080;2022-09-27T12:33:47;4.00;;;0.55;;
24143;SDS011;12307;50.828;6.080;2022-09-27T12:36:18;1.45;;;0.70;;
24143;SDS011;12307;50.828;6.080;2022-09-27T12:38:49;0.90;;;0.40;;
24143;SDS011;12307;50.828;6.080;2022-09-27T12:41:21;0.95;;;0.50;;
24143;SDS011;12307;50.828;6.080;2022-09-27T12:43:50;0.95;;;0.60;;
24143;SDS011;12307;50.828;6.080;2022-09-27T12:46:18;2.13;;;0.60;;
24143;SDS011;12307;50.828;6.080;2022-09-27T12:48:57;1.50;;;0.60;;
24143;SDS011;12307;50.828;6.080;2022-09-27T12:51:31;1.52;;;0.60;;
24143;SDS011;12307;50.828;6.080;2022-09-27T12:54:04;1.80;;;0.80;;
24143;SDS011;12307;50.828;6.080;2022-09-27T12:56:48;1.23;;;0.70;;
24143;SDS011;12307;50.828;6.080;2022-09-27T12:59:36;0.90;;;0.57;;
24143;SDS011;12307;50.828;6.080;2022-09-27T13:11:28;1.42;;;0.50;;
24143;SDS011;12307;50.828;6.080;2022-09-27T13:14:03;2.25;;;0.70;;
24143;SDS011;12307;50.828;6.080;2022-09-27T13:16:31;1.35;;;0.70;;
24143;SDS011;12307;50.828;6.080;2022-09-27T13:19:12;0.85;;;0.60;;
24143;SDS011;12307;50.828;6.080;2022-09-27T13:22:06;0.93;;;0.57;;
24143;SDS011;12307;50.828;6.080;2022-09-27T13:24:43;0.93;;;0.70;;
24143;SDS011;12307;50.828;6.080;2022-09-27T13:36:25;1.75;;;0.70;;
24143;SDS011;12307;50.828;6.080;2022-09-27T13:38:57;1.95;;;0.85;;
24143;SDS011;12307;50.828;6.080;2022-09-27T13:41:31;2.67;;;0.80;;
24143;SDS011;12307;50.828;6.080;2022-09-27T13:44:06;2.50;;;0.90;;
24143;SDS011;12307;50.828;6.080;2022-09-27T13:46:42;1.60;;;0.60;;
24143;SDS011;12307;50.828;6.080;2022-09-27T13:49:18;1.88;;;0.70;;
24143;SDS011;12307;50.828;6.080;2022-09-27T13:51:49;0.90;;;0.60;;
24143;SDS011;12307;50.828;6.080;2022-09-27T13:54:35;1.17;;;0.60;;
24143;SDS011;12307;50.828;6.080;2022-09-27T14:00:12;1.75;;;0.60;;
24143;SDS011;12307;50.828;6.080;2022-09-27T14:02:42;1.75;;;0.63;;
24143;SDS011;12307;50.828;6.080;2022-09-27T14:05:19;1.20;;;0.50;;
24143;SDS011;12307;50.828;6.080;2022-09-27T14:07:48;1.42;;;0.75;;
24143;SDS011;12307;50.828;6.080;2022-09-27T14:10:16;1.95;;;0.50;;
24143;SDS011;12307;50.828;6.080;2022-09-27T14:12:48;1.77;;;0.70;;
24143;SDS011;12307;50.828;6.080;2022-09-27T14:15:17;1.80;;;0.75;;
24143;SDS011;12307;50.828;6.080;2022-09-27T14:17:46;1.73;;;0.60;;
24143;SDS011;12307;50.828;6.080;2022-09-27T14:22:58;2.00;;;0.77;;
24143;SDS011;12307;50.828;6.080;2022-09-27T14:25:25;2.50;;;0.90;;
24143;SDS011;12307;50.828;6.080;2022-09-27T14:27:51;0.88;;;0.50;;
24143;SDS011;12307;50.828;6.080;2022-09-27T14:30:18;1.17;;;0.68;;
24143;SDS011;12307;50.828;6.080;2022-09-27T14:32:46;1.00;;;0.60;;
24143;SDS011;12307;50.828;6.080;2022-09-27T14:35:13;2.25;;;0.50;;
24143;SDS011;12307;50.828;6.080;2022-09-27T14:38:02;1.80;;;0.80;;
24143;SDS011;12307;50.828;6.080;2022-09-27T14:40:29;1.38;;;0.70;;
24143;SDS011;12307;50.828;6.080;2022-09-27T14:43:01;2.03;;;0.70;;
24143;SDS011;12307;50.828;6.080;2022-09-27T14:45:29;2.25;;;0.88;;
24143;SDS011;12307;50.828;6.080;2022-09-27T14:48:00;1.05;;;0.68;;
24143;SDS011;12307;50.828;6.080;2022-09-27T14:50:27;1.33;;;0.60;;
24143;SDS011;12307;50.828;6.080;2022-09-27T14:52:54;3.25;;;0.80;;
24143;SDS011;12307;50.828;6.080;2022-09-27T14:55:25;1.33;;;0.60;;
24143;SDS011;12307;50.828;6.080;2022-09-27T14:57:53;1.50;;;0.70;;
24143;SDS011;12307;50.828;6.080;2022-09-27T15:00:22;1.52;;;0.70;;
24143;SDS011;12307;50.828;6.080;2022-09-27T15:02:50;1.67;;;0.60;;
24143;SDS011;12307;50.828;6.080;2022-09-27T15:05:20;1.13;;;0.60;;
24143;SDS011;12307;50.828;6.080;2022-09-27T15:07:47;3.03;;;0.80;;
24143;SDS011;12307;50.828;6.080;2022-09-27T15:10:14;1.50;;;0.60;;
24143;SDS011;12307;50.828;6.080;2022-09-27T15:12:42;1.05;;;0.60;;
24143;SDS011;12307;50.828;6.080;2022-09-27T15:15:12;0.85;;;0.50;;
24143;SDS011;12307;50.828;6.080;2022-09-27T15:17:40;0.70;;;0.50;;
24143;SDS011;12307;50.828;6.080;2022-09-27T15:20:17;2.03;;;0.70;;
24143;SDS011;12307;50.828;6.080;2022-09-27T15:22:46;1.23;;;0.60;;
24143;SDS011;12307;50.828;6.080;2022-09-27T15:25:20;1.13;;;0.60;;
24143;SDS011;12307;50.828;6.080;2022-09-27T15:27:51;0.95;;;0.70;;
24143;SDS011;12307;50.828;6.080;2022-09-27T15:30:20;1.27;;;0.60;;
24143;SDS011;12307;50.828;6.080;2022-09-27T15:32:50;1.33;;;0.70;;
24143;SDS011;12307;50.828;6.080;2022-09-27T15:35:19;1.48;;;0.68;;
24143;SDS011;12307;50.828;6.080;2022-09-27T15:37:49;2.85;;;0.70;;
24143;SDS011;12307;50.828;6.080;2022-09-27T15:43:18;1.90;;;0.77;;
24143;SDS011;12307;50.828;6.080;2022-09-27T15:45:47;1.48;;;0.82;;